createdAt,value
2023-02-20T00:01:49.446Z,97445.65
2023-02-20T00:04:17.933Z,97446.11
2023-02-20T00:06:45.901Z,97452.35
2023-02-20T00:09:14.434Z,97459.72
2023-02-20T00:11:42.446Z,97457.94
2023-02-20T00:14:10.507Z,97456.48
2023-02-20T00:16:38.688Z,97461.95
2023-02-20T00:19:06.682Z,97459.26
2023-02-20T00:21:34.726Z,97462.73
2023-02-20T00:24:04.006Z,97466.84
2023-02-20T00:26:32.444Z,97467.71
2023-02-20T00:29:00.390Z,97466.00
2023-02-20T00:31:28.319Z,97467.15
2023-02-20T00:33:56.245Z,97468.70
2023-02-20T00:36:24.205Z,97477.91
2023-02-20T00:38:52.140Z,97484.89
2023-02-20T00:41:21.980Z,97487.58
2023-02-20T00:43:49.898Z,97490.50
2023-02-20T00:46:18.081Z,97494.31
2023-02-20T00:48:46.050Z,97493.86
2023-02-20T00:51:13.966Z,97489.05
2023-02-20T00:53:41.865Z,97484.00
2023-02-20T00:56:10.012Z,97485.14
2023-02-20T00:58:38.039Z,97487.45
2023-02-20T01:01:06.083Z,97496.65
2023-02-20T01:03:34.052Z,97500.64
2023-02-20T01:06:03.786Z,97503.55
2023-02-20T01:08:31.828Z,97501.14
2023-02-20T01:10:59.963Z,97508.85
2023-02-20T01:13:28.009Z,97519.93
2023-02-20T01:15:56.056Z,97520.98
2023-02-20T01:18:24.662Z,97525.08
2023-02-20T01:20:52.557Z,97529.04
2023-02-20T01:23:21.272Z,97530.55
2023-02-20T01:25:49.825Z,97532.02
2023-02-20T01:28:17.930Z,97543.45
2023-02-20T01:30:45.936Z,97544.21
2023-02-20T01:33:14.386Z,97543.13
2023-02-20T01:35:42.312Z,97544.54
2023-02-20T01:38:10.321Z,97541.15
2023-02-20T01:40:38.292Z,97545.66
2023-02-20T01:43:06.221Z,97549.88
2023-02-20T01:45:39.641Z,97549.63
2023-02-20T01:48:24.867Z,97551.92
2023-02-20T01:50:58.703Z,97559.60
2023-02-20T01:53:30.776Z,97564.34
2023-02-20T01:56:08.224Z,97566.55
2023-02-20T01:58:42.704Z,97562.52
2023-02-20T02:01:12.440Z,97557.57
2023-02-20T02:03:45.453Z,97555.77
2023-02-20T02:06:16.025Z,97553.38
2023-02-20T02:08:45.892Z,97554.81
2023-02-20T02:11:20.490Z,97553.19
2023-02-20T02:13:48.626Z,97549.19
2023-02-20T02:16:52.586Z,97552.04
2023-02-20T02:19:39.102Z,97554.27
2023-02-20T02:22:19.163Z,97557.99
2023-02-20T02:25:11.370Z,97557.17
2023-02-20T02:27:54.671Z,97557.41
2023-02-20T02:31:00.737Z,97561.66
2023-02-20T02:33:31.596Z,97572.18
2023-02-20T02:36:12.079Z,97570.48
2023-02-20T02:38:46.324Z,97571.40
2023-02-20T02:41:42.365Z,97571.75
2023-02-20T02:44:17.246Z,97576.05
2023-02-20T02:46:45.156Z,97581.11
2023-02-20T02:49:23.732Z,97583.52
2023-02-20T02:51:54.759Z,97588.31
2023-02-20T02:54:29.047Z,97591.34
2023-02-20T02:57:19.541Z,97592.84
2023-02-20T02:59:50.025Z,97599.30
2023-02-20T03:02:19.825Z,97604.52
2023-02-20T03:04:51.304Z,97605.83
2023-02-20T03:07:20.875Z,97606.52
2023-02-20T03:09:54.521Z,97611.29
2023-02-20T03:12:24.724Z,97613.75
2023-02-20T03:15:34.975Z,97617.65
2023-02-20T03:18:23.057Z,97618.33
2023-02-20T03:20:59.061Z,97622.02
2023-02-20T03:23:34.759Z,97625.69
2023-02-20T03:26:10.865Z,97625.88
2023-02-20T03:28:42.888Z,97629.27
2023-02-20T03:31:21.972Z,97629.76
2023-02-20T03:34:15.604Z,97630.02
2023-02-20T03:37:10.370Z,97634.73
2023-02-20T03:40:03.701Z,97642.31
2023-02-20T03:42:53.964Z,97643.68
2023-02-20T03:45:23.818Z,97648.65
2023-02-20T03:47:55.380Z,97647.24
2023-02-20T03:50:23.425Z,97648.44
2023-02-20T03:52:51.798Z,97647.28
2023-02-20T03:55:19.726Z,97649.07
2023-02-20T03:57:52.616Z,97646.72
2023-02-20T04:00:25.017Z,97646.65
2023-02-20T04:02:56.627Z,97653.27
2023-02-20T04:05:30.245Z,97658.64
2023-02-20T04:08:35.711Z,97661.41
2023-02-20T04:11:09.601Z,97666.10
2023-02-20T04:13:38.693Z,97667.94
2023-02-20T04:16:08.527Z,97670.30
2023-02-20T04:18:37.029Z,97670.23
2023-02-20T04:21:11.844Z,97665.09
2023-02-20T04:23:45.319Z,97662.39
2023-02-20T04:26:21.474Z,97668.58
2023-02-20T04:28:49.732Z,97670.15
2023-02-20T04:31:19.532Z,97671.58
2023-02-20T04:33:47.598Z,97676.42
2023-02-20T04:36:15.598Z,97680.95
2023-02-20T04:38:43.473Z,97684.98
2023-02-20T04:41:11.449Z,97686.61
2023-02-20T04:43:39.397Z,97691.45
2023-02-20T04:46:07.339Z,97694.35
2023-02-20T04:48:37.876Z,97689.99
2023-02-20T04:54:24.159Z,97702.14
2023-02-20T04:56:52.816Z,97702.94
2023-02-20T04:59:20.920Z,97711.31
2023-02-20T05:01:51.870Z,97717.60
2023-02-20T05:04:20.782Z,97718.95
2023-02-20T05:06:51.849Z,97722.11
2023-02-20T05:09:21.084Z,97727.52
2023-02-20T05:11:49.447Z,97728.95
2023-02-20T05:14:17.699Z,97733.47
2023-02-20T05:16:46.273Z,97737.64
2023-02-20T05:19:15.132Z,97742.37
2023-02-20T05:22:03.246Z,97741.38
2023-02-20T05:24:32.297Z,97745.60
2023-02-20T05:27:03.086Z,97750.66
2023-02-20T05:29:31.051Z,97751.80
2023-02-20T05:31:58.980Z,97755.13
2023-02-20T05:34:26.986Z,97754.45
2023-02-20T05:36:57.210Z,97763.98
2023-02-20T05:39:25.414Z,97766.50
2023-02-20T05:41:53.317Z,97776.79
2023-02-20T05:44:21.214Z,97778.17
2023-02-20T05:46:49.494Z,97778.98
2023-02-20T05:49:18.108Z,97781.70
2023-02-20T05:51:46.581Z,97779.77
2023-02-20T05:54:14.555Z,97786.14
2023-02-20T05:56:44.073Z,97794.41
2023-02-20T05:59:17.545Z,97797.38
2023-02-20T06:01:46.239Z,97804.65
2023-02-20T06:04:14.190Z,97808.95
2023-02-20T06:06:42.826Z,97816.48
2023-02-20T06:09:12.658Z,97818.39
2023-02-20T06:11:40.478Z,97824.61
2023-02-20T06:14:08.845Z,97829.80
2023-02-20T06:16:36.804Z,97833.36
2023-02-20T06:19:07.138Z,97833.97
2023-02-20T06:21:36.339Z,97841.01
2023-02-20T06:24:04.553Z,97845.88
2023-02-20T06:26:32.564Z,97848.49
2023-02-20T06:29:00.469Z,97852.77
2023-02-20T06:31:28.636Z,97859.27
2023-02-20T06:33:56.726Z,97861.23
2023-02-20T06:36:32.001Z,97865.92
2023-02-20T06:39:01.047Z,97869.58
2023-02-20T06:41:29.217Z,97872.55
2023-02-20T06:43:59.037Z,97877.91
2023-02-20T06:46:27.408Z,97885.63
2023-02-20T06:48:57.896Z,97888.11
2023-02-20T06:51:34.506Z,97885.27
2023-02-20T06:54:03.933Z,97885.63
2023-02-20T06:56:45.396Z,97888.61
2023-02-20T06:59:19.966Z,97891.08
2023-02-20T07:01:47.934Z,97896.33
2023-02-20T07:04:35.931Z,97899.27
2023-02-20T07:07:07.540Z,97899.15
2023-02-20T07:09:35.406Z,97894.80
2023-02-20T07:12:03.503Z,97894.41
2023-02-20T07:14:31.976Z,97894.60
2023-02-20T07:17:00.036Z,97893.21
2023-02-20T07:19:45.387Z,97895.00
2023-02-20T07:22:13.306Z,97895.54
2023-02-20T07:24:41.955Z,97902.38
2023-02-20T07:27:14.064Z,97911.02
2023-02-20T07:29:48.738Z,97913.80
2023-02-20T07:32:20.684Z,97912.83
2023-02-20T07:35:02.909Z,97915.81
2023-02-20T07:37:31.692Z,97922.14
2023-02-20T07:39:59.663Z,97930.56
2023-02-20T07:42:27.654Z,97928.61
2023-02-20T07:44:58.332Z,97926.01
2023-02-20T07:47:34.229Z,97925.25
2023-02-20T07:50:28.968Z,97923.05
2023-02-20T07:53:03.809Z,97919.58
2023-02-20T07:55:31.707Z,97919.63
2023-02-20T07:58:01.591Z,97916.98
2023-02-20T08:00:29.498Z,97920.08
2023-02-20T08:02:59.488Z,97922.30
2023-02-20T08:05:29.622Z,97924.84
2023-02-20T08:08:09.650Z,97926.33
2023-02-20T08:10:37.938Z,97927.30
2023-02-20T08:13:05.788Z,97928.03
2023-02-20T08:15:33.691Z,97919.79
2023-02-20T08:18:01.624Z,97913.69
2023-02-20T08:20:30.023Z,97908.88
2023-02-20T08:23:00.881Z,97907.75
2023-02-20T08:25:28.844Z,97906.23
2023-02-20T08:27:56.776Z,97911.73
2023-02-20T08:30:28.093Z,97912.84
2023-02-20T08:32:56.361Z,97910.39
2023-02-20T08:35:25.037Z,97911.30
2023-02-20T08:37:53.194Z,97910.05
2023-02-20T08:40:21.187Z,97904.61
2023-02-20T08:42:52.282Z,97906.11
2023-02-20T08:45:20.301Z,97902.00
2023-02-20T08:47:48.763Z,97903.67
2023-02-20T08:50:19.226Z,97906.33
2023-02-20T08:52:47.284Z,97906.20
2023-02-20T08:55:15.261Z,97906.27
2023-02-20T08:57:44.547Z,97896.57
2023-02-20T09:00:15.447Z,97900.39
2023-02-20T09:02:43.462Z,97898.16
2023-02-20T09:05:11.582Z,97898.04
2023-02-20T09:07:39.530Z,97907.05
2023-02-20T09:10:07.891Z,97906.44
2023-02-20T09:12:35.931Z,97907.14
2023-02-20T09:15:04.038Z,97903.34
2023-02-20T09:17:32.074Z,97900.15
2023-02-20T09:19:59.999Z,97898.38
2023-02-20T09:22:27.886Z,97900.23
2023-02-20T09:24:56.157Z,97898.77
2023-02-20T09:27:23.979Z,97898.77
2023-02-20T09:29:51.868Z,97890.27
2023-02-20T09:32:19.908Z,97887.44
2023-02-20T09:34:48.233Z,97887.04
2023-02-20T09:37:16.098Z,97890.29
2023-02-20T09:39:43.964Z,97885.41
2023-02-20T09:42:29.216Z,97880.45
2023-02-20T09:45:18.730Z,97881.40
2023-02-20T09:47:58.870Z,97885.66
2023-02-20T09:50:49.756Z,97885.39
2023-02-20T09:53:35.488Z,97875.94
2023-02-20T09:56:06.450Z,97867.35
2023-02-20T09:58:46.514Z,97859.48
2023-02-20T10:01:19.508Z,97847.05
2023-02-20T10:04:00.815Z,97841.15
2023-02-20T10:06:32.770Z,97835.15
2023-02-20T10:09:02.587Z,97819.41
2023-02-20T10:11:43.130Z,97811.44
2023-02-20T10:14:27.893Z,97806.25
2023-02-20T10:17:03.464Z,97802.72
2023-02-20T10:20:09.529Z,97800.33
2023-02-20T10:22:59.846Z,97796.96
2023-02-20T10:25:43.100Z,97791.20
2023-02-20T10:28:16.429Z,97792.57
2023-02-20T10:31:29.768Z,97791.13
2023-02-20T10:34:16.793Z,97791.33
2023-02-20T10:36:54.033Z,97784.63
2023-02-20T10:39:23.543Z,97785.25
2023-02-20T10:42:12.849Z,97780.69
2023-02-20T10:45:07.100Z,97773.33
2023-02-20T10:47:45.330Z,97771.33
2023-02-20T10:50:21.439Z,97768.59
2023-02-20T10:53:12.815Z,97763.08
2023-02-20T10:55:57.718Z,97754.04
2023-02-20T10:58:37.989Z,97751.68
2023-02-20T11:01:10.039Z,97748.11
2023-02-20T11:04:00.367Z,97739.58
2023-02-20T11:06:38.247Z,97726.98
2023-02-20T11:09:06.420Z,97720.72
2023-02-20T11:11:46.536Z,97721.77
2023-02-20T11:14:38.978Z,97710.39
2023-02-20T11:17:15.362Z,97696.09
2023-02-20T11:19:46.536Z,97689.94
2023-02-20T11:22:15.857Z,97680.85
2023-02-20T11:24:47.219Z,97674.73
2023-02-20T11:27:19.288Z,97669.27
2023-02-20T11:29:56.343Z,97668.23
2023-02-20T11:32:50.642Z,97665.05
2023-02-20T11:35:18.642Z,97664.05
2023-02-20T11:38:20.569Z,97662.96
2023-02-20T11:41:14.397Z,97667.95
2023-02-20T11:44:00.238Z,97662.39
2023-02-20T11:46:28.729Z,97660.27
2023-02-20T11:49:07.511Z,97667.83
2023-02-20T11:51:47.189Z,97661.60
2023-02-20T11:54:16.389Z,97661.36
2023-02-20T11:57:07.109Z,97656.31
2023-02-20T11:59:48.727Z,97659.20
2023-02-20T12:02:17.159Z,97650.75
2023-02-20T12:05:13.494Z,97648.91
2023-02-20T12:07:43.128Z,97645.89
2023-02-20T12:10:23.397Z,97639.01
2023-02-20T12:12:52.871Z,97639.90
2023-02-20T12:15:24.093Z,97633.46
2023-02-20T12:18:16.117Z,97638.67
2023-02-20T12:20:59.108Z,97635.73
2023-02-20T12:23:38.199Z,97634.26
2023-02-20T12:26:42.683Z,97627.80
2023-02-20T12:29:29.107Z,97621.27
2023-02-20T12:32:19.933Z,97612.88
2023-02-20T12:35:02.050Z,97599.38
2023-02-20T12:38:24.517Z,97585.95
2023-02-20T12:41:07.268Z,97586.09
2023-02-20T12:44:14.085Z,97588.86
2023-02-20T12:47:01.737Z,97589.82
2023-02-20T12:50:07.796Z,97592.30
2023-02-20T12:53:12.420Z,97582.48
2023-02-20T12:55:51.347Z,97582.46
2023-02-20T12:58:23.262Z,97581.78
2023-02-20T13:00:55.021Z,97581.13
2023-02-20T13:03:41.518Z,97580.16
2023-02-20T13:06:13.873Z,97573.25
2023-02-20T13:09:35.873Z,97571.16
2023-02-20T13:12:11.839Z,97572.21
2023-02-20T13:14:51.965Z,97572.94
2023-02-20T13:17:25.452Z,97570.29
2023-02-20T13:20:16.851Z,97566.92
2023-02-20T13:23:01.999Z,97564.68
2023-02-20T13:25:42.557Z,97559.58
2023-02-20T13:28:31.594Z,97560.48
2023-02-20T13:31:43.501Z,97570.07
2023-02-20T13:34:11.378Z,97570.45
2023-02-20T13:36:46.959Z,97567.27
2023-02-20T13:39:33.911Z,97563.23
2023-02-20T13:42:04.921Z,97557.36
2023-02-20T13:44:41.123Z,97555.80
2023-02-20T13:47:22.176Z,97558.76
2023-02-20T13:49:59.228Z,97559.11
2023-02-20T13:52:36.097Z,97553.13
2023-02-20T13:55:09.954Z,97544.05
2023-02-20T13:58:02.465Z,97539.94
2023-02-20T14:00:54.033Z,97534.20
2023-02-20T14:03:24.432Z,97530.52
2023-02-20T14:06:18.206Z,97527.33
2023-02-20T14:08:49.500Z,97524.67
2023-02-20T14:11:36.088Z,97520.84
2023-02-20T14:14:09.643Z,97513.78
2023-02-20T14:16:42.035Z,97514.09
2023-02-20T14:19:19.953Z,97520.83
2023-02-20T14:21:48.291Z,97521.33
2023-02-20T14:24:29.662Z,97522.35
2023-02-20T14:26:57.729Z,97525.21
2023-02-20T14:29:35.442Z,97530.92
2023-02-20T14:32:04.810Z,97525.84
2023-02-20T14:35:10.576Z,97524.58
2023-02-20T14:38:03.396Z,97520.20
2023-02-20T14:40:41.717Z,97515.70
2023-02-20T14:43:14.613Z,97510.05
2023-02-20T14:45:45.464Z,97503.10
2023-02-20T14:48:26.569Z,97501.48
2023-02-20T14:51:12.374Z,97499.71
2023-02-20T14:53:41.098Z,97499.69
2023-02-20T14:56:18.308Z,97495.90
2023-02-20T14:58:47.195Z,97498.83
2023-02-20T15:01:27.293Z,97498.11
2023-02-20T15:04:01.721Z,97500.02
2023-02-20T15:06:33.583Z,97502.98
2023-02-20T15:09:09.737Z,97501.14
2023-02-20T15:11:47.936Z,97495.95
2023-02-20T15:14:24.817Z,97500.67
2023-02-20T15:17:14.453Z,97502.63
2023-02-20T15:19:42.920Z,97501.77
2023-02-20T15:22:29.063Z,97503.41
2023-02-20T15:25:24.935Z,97499.62
2023-02-20T15:28:23.690Z,97495.55
2023-02-20T15:31:07.194Z,97482.64
2023-02-20T15:33:47.028Z,97483.11
2023-02-20T15:36:23.104Z,97475.75
2023-02-20T15:38:57.194Z,97472.02
2023-02-20T15:41:25.862Z,97471.77
2023-02-20T15:43:53.845Z,97471.42
2023-02-20T15:46:22.110Z,97472.34
2023-02-20T15:48:52.607Z,97465.05
2023-02-20T15:51:23.136Z,97463.20
2023-02-20T15:53:53.891Z,97460.56
2023-02-20T15:56:22.118Z,97461.67
2023-02-20T15:58:51.215Z,97467.34
2023-02-20T16:01:19.280Z,97463.10
2023-02-20T16:03:53.193Z,97468.38
2023-02-20T16:06:23.494Z,97469.53
2023-02-20T16:08:53.189Z,97473.32
2023-02-20T16:11:27.494Z,97478.23
2023-02-20T16:14:01.424Z,97469.92
2023-02-20T16:16:35.056Z,97465.06
2023-02-20T16:19:04.769Z,97466.06
2023-02-20T16:21:32.634Z,97467.55
2023-02-20T16:24:00.532Z,97460.01
2023-02-20T16:26:34.585Z,97455.83
2023-02-20T16:29:09.445Z,97447.82
2023-02-20T16:31:55.892Z,97444.20
2023-02-20T16:34:26.812Z,97446.23
2023-02-20T16:36:54.826Z,97442.91
2023-02-20T16:39:27.001Z,97441.91
2023-02-20T16:41:58.535Z,97444.30
2023-02-20T16:44:36.759Z,97448.41
2023-02-20T16:47:05.223Z,97446.49
2023-02-20T16:49:37.538Z,97439.78
2023-02-20T16:52:19.485Z,97439.33
2023-02-20T16:54:52.145Z,97428.24
2023-02-20T16:57:23.871Z,97412.60
2023-02-20T16:59:59.974Z,97407.52
2023-02-20T17:02:34.296Z,97398.08
2023-02-20T17:05:02.250Z,97390.48
2023-02-20T17:07:31.378Z,97400.86
2023-02-20T17:09:59.598Z,97407.34
2023-02-20T17:12:27.897Z,97407.02
2023-02-20T17:14:58.008Z,97403.30
2023-02-20T17:17:26.187Z,97409.12
2023-02-20T17:19:57.955Z,97410.75
2023-02-20T17:22:35.212Z,97414.08
2023-02-20T17:25:03.223Z,97415.63
2023-02-20T17:27:31.248Z,97418.46
2023-02-20T17:29:59.535Z,97422.27
2023-02-20T17:32:28.384Z,97419.20
2023-02-20T17:34:56.541Z,97419.01
2023-02-20T17:37:26.426Z,97415.52
2023-02-20T17:39:54.419Z,97404.64
2023-02-20T17:42:22.346Z,97391.53
2023-02-20T17:44:51.119Z,97392.66
2023-02-20T17:47:19.212Z,97396.05
2023-02-20T17:49:53.380Z,97403.11
2023-02-20T17:52:22.951Z,97400.28
2023-02-20T17:54:52.391Z,97399.63
2023-02-20T17:57:20.310Z,97403.20
2023-02-20T17:59:50.978Z,97398.95
2023-02-20T18:02:19.378Z,97393.19
2023-02-20T18:04:47.344Z,97386.77
2023-02-20T18:07:17.294Z,97378.23
2023-02-20T18:09:45.338Z,97379.55
2023-02-20T18:12:13.298Z,97379.98
2023-02-20T18:14:42.461Z,97382.48
2023-02-20T18:17:10.466Z,97371.56
2023-02-20T18:19:38.399Z,97361.48
2023-02-20T18:22:06.322Z,97346.31
2023-02-20T18:24:34.538Z,97331.48
2023-02-20T18:27:02.386Z,97334.89
2023-02-20T18:29:30.445Z,97322.98
2023-02-20T18:31:59.180Z,97310.79
2023-02-20T18:34:28.336Z,97297.73
2023-02-20T18:36:56.558Z,97287.98
2023-02-20T18:39:24.924Z,97273.69
2023-02-20T18:41:55.520Z,97272.08
2023-02-20T18:44:24.291Z,97274.95
2023-02-20T18:46:52.166Z,97276.91
2023-02-20T18:49:20.186Z,97283.18
2023-02-20T18:51:48.096Z,97295.45
2023-02-20T18:54:19.969Z,97298.58
2023-02-20T18:56:49.032Z,97294.48
2023-02-20T18:59:18.376Z,97285.29
2023-02-20T19:01:46.426Z,97283.55
2023-02-20T19:04:15.399Z,97283.90
2023-02-20T19:06:47.134Z,97274.61
2023-02-20T19:09:17.933Z,97271.55
2023-02-20T19:11:54.549Z,97272.86
2023-02-20T19:14:24.206Z,97265.70
2023-02-20T19:16:54.819Z,97257.66
2023-02-20T19:19:26.034Z,97260.09
2023-02-20T19:21:54.985Z,97256.46
2023-02-20T19:24:23.506Z,97254.19
2023-02-20T19:26:51.726Z,97248.91
2023-02-20T19:29:20.168Z,97242.43
2023-02-20T19:31:48.310Z,97239.30
2023-02-20T19:34:16.329Z,97239.37
2023-02-20T19:36:44.508Z,97239.85
2023-02-20T19:39:14.138Z,97232.27
2023-02-20T19:41:42.527Z,97227.63
2023-02-20T19:44:15.054Z,97232.92
2023-02-20T19:46:43.863Z,97221.81
2023-02-20T19:49:13.032Z,97214.86
2023-02-20T19:51:49.960Z,97211.97
2023-02-20T19:54:29.049Z,97209.10
2023-02-20T19:57:00.970Z,97208.02
2023-02-20T19:59:29.511Z,97206.73
2023-02-20T20:01:59.848Z,97200.42
2023-02-20T20:04:30.695Z,97193.05
2023-02-20T20:07:00.419Z,97185.40
2023-02-20T20:09:36.080Z,97180.09
2023-02-20T20:12:26.865Z,97174.80
2023-02-20T20:14:55.450Z,97174.55
2023-02-20T20:17:23.638Z,97172.52
2023-02-20T20:20:00.485Z,97171.02
2023-02-20T20:22:30.609Z,97168.57
2023-02-20T20:24:59.424Z,97174.24
2023-02-20T20:27:27.630Z,97175.77
2023-02-20T20:29:55.717Z,97169.72
2023-02-20T20:32:24.012Z,97169.79
2023-02-20T20:34:53.258Z,97173.03
2023-02-20T20:37:26.151Z,97173.20
2023-02-20T20:39:58.956Z,97170.20
2023-02-20T20:42:28.198Z,97176.16
2023-02-20T20:44:58.511Z,97174.91
2023-02-20T20:47:29.484Z,97168.05
2023-02-20T20:50:07.135Z,97158.89
2023-02-20T20:52:44.888Z,97155.63
2023-02-20T20:55:13.352Z,97152.77
2023-02-20T20:57:41.413Z,97152.02
2023-02-20T21:00:27.395Z,97150.85
2023-02-20T21:02:58.837Z,97144.10
2023-02-20T21:05:30.364Z,97142.33
2023-02-20T21:08:06.304Z,97144.30
2023-02-20T21:10:55.665Z,97134.63
2023-02-20T21:13:23.530Z,97125.46
2023-02-20T21:15:51.479Z,97111.23
2023-02-20T21:18:19.372Z,97101.82
2023-02-20T21:20:47.220Z,97097.64
2023-02-20T21:23:15.132Z,97098.92
2023-02-20T21:25:43.013Z,97099.96
2023-02-20T21:28:10.915Z,97099.73
2023-02-20T21:30:38.861Z,97107.83
2023-02-20T21:33:06.798Z,97107.92
2023-02-20T21:35:34.644Z,97108.05
2023-02-20T21:38:02.544Z,97103.02
2023-02-20T21:40:30.406Z,97110.43
2023-02-20T21:43:16.857Z,97107.69
2023-02-20T21:45:45.518Z,97097.55
2023-02-20T21:48:13.382Z,97094.57
2023-02-20T21:50:41.270Z,97091.09
2023-02-20T21:53:10.975Z,97087.59
2023-02-20T21:55:39.011Z,97086.64
2023-02-20T21:58:06.846Z,97085.33
2023-02-20T22:00:34.594Z,97080.71
2023-02-20T22:03:02.760Z,97070.58
2023-02-20T22:05:31.303Z,97056.88
2023-02-20T22:08:18.004Z,97057.13
2023-02-20T22:11:04.561Z,97050.34
2023-02-20T22:13:50.797Z,97044.18
2023-02-20T22:16:38.831Z,97035.63
2023-02-20T22:19:25.570Z,97028.77
2023-02-20T22:22:11.992Z,97023.30
2023-02-20T22:24:58.443Z,97023.42
2023-02-20T22:27:45.090Z,97014.77
2023-02-20T22:30:32.216Z,97010.21
2023-02-20T22:33:18.833Z,97002.49
2023-02-20T22:36:05.170Z,96998.22
2023-02-20T22:38:51.750Z,96993.48
2023-02-20T22:41:39.853Z,96992.48
2023-02-20T22:44:26.346Z,96994.34
2023-02-20T22:47:13.164Z,96984.91
2023-02-20T22:49:59.804Z,96983.91
2023-02-20T22:52:46.543Z,96980.73
2023-02-20T22:55:33.054Z,96977.32
2023-02-20T22:58:19.304Z,96975.92
2023-02-20T23:01:05.975Z,96961.61
2023-02-20T23:03:52.873Z,96953.05
2023-02-20T23:06:40.382Z,96946.98
2023-02-20T23:09:28.492Z,96947.96
2023-02-20T23:12:15.205Z,96954.02
2023-02-20T23:15:02.733Z,96948.60
2023-02-20T23:17:49.344Z,96944.41
2023-02-20T23:20:40.499Z,96941.26
2023-02-20T23:23:28.113Z,96935.49
2023-02-20T23:26:14.706Z,96934.11
2023-02-20T23:29:01.785Z,96918.56
2023-02-20T23:31:53.910Z,96908.91
2023-02-20T23:34:41.269Z,96908.52
2023-02-20T23:37:28.122Z,96909.74
2023-02-20T23:40:19.114Z,96901.23
2023-02-20T23:43:07.961Z,96902.64
2023-02-20T23:45:54.325Z,96901.80
2023-02-20T23:48:41.029Z,96900.58
2023-02-20T23:51:29.874Z,96895.76
2023-02-20T23:54:16.681Z,96892.23
2023-02-20T23:57:03.713Z,96889.71
2023-02-20T23:59:50.574Z,96882.86
